Aeroporto :
LOGIN :

Iscrizione | Disclaimer

   EN    FR    IT 

 










Sommario :    VFR   VFR Marginale   IFR   IFR Intensivo   IFR Molto Intensivo
Visibilità : 
Base nubi : 
>= 8 km
>= 3000ft
5 / 8 km
1000 / 3000 ft
1500m / 5 km
500 / 1000 ft
800 / 1500m
200 / 500 ft
< 800m
< 200 ft
Simboli :   Temporali  Nebbia  Neve Forte  Precipitazioni Forti  Vento > 20 kt
SIGMETs :   Varie  Temporali  Ghiacco  Turbolenza  Onda orograficha  Ceneri Vulcaniche






- Altitudine del aeroporto : 302 ft
- Codice IATA : CGN


EDDK - Cologne Bonn

ULTIMO METAR :
  • 280150Z 10004KT 060V140 9999 BKN007 03/01 Q1020 TEMPO SCT006

METARs OBSOLETI :
  • 280120Z 11005KT 060V140 9999 BKN007 03/01 Q1020 TEMPO SCT006
  • 280050Z 10005KT 060V140 9999 BKN006 03/02 Q1020 TEMPO SCT006
  • 280020Z 10004KT 060V150 9999 BKN006 03/02 Q1020 NOSIG
  • 272350Z 11006KT 080V150 9999 BKN006 03/02 Q1020 NOSIG
  • 272320Z 11005KT 080V150 9999 BKN006 03/02 Q1020 NOSIG

TAF AMD TAF EDDK
Valido dal 28 a 00 ore il 29 a 06 ore UTC


280041Z 2800/2906 11008KT 9999 BKN007
TEMPO 2801/2805 SCT007
BECMG 2808/2812 SCT007
BECMG 2820/2823 3000 BR BKN010



MetMap, La meteo Aeronautica in un colpo d'occhio ! - Copyright ORBIFLY Dicembre 2007 - Disclaimer

ORBIFLY MET'MAP TEAM :

Programmazione e sviluppo : Alexandra Zaïnal
Concezione : Baudouin d'Aumeries
Aiuto per la programmazione : Marc-Olivier Méhu
Supporto tecnico e logistico : Manuel Goepfert
Aiuto per la traduzione : Arnaldo La Scala

Contatto : metmap@orbifly.com




FONTI E CREDITI :

   NOAA